sensor_id;sensor_type;location;lat;lon;timestamp;temperature;humidity
21666;DHT22;10994;45.486;9.190;2024-01-30T09:18:37;6.80;99.90
21666;DHT22;10994;45.486;9.190;2024-01-30T09:21:03;6.90;99.90
21666;DHT22;10994;45.486;9.190;2024-01-30T09:23:29;6.70;99.90
21666;DHT22;10994;45.486;9.190;2024-01-30T09:25:55;6.40;99.90
21666;DHT22;10994;45.486;9.190;2024-01-30T09:28:21;6.30;99.90
21666;DHT22;10994;45.486;9.190;2024-01-30T09:30:47;6.40;99.90
21666;DHT22;10994;45.486;9.190;2024-01-30T09:33:13;6.50;99.90
21666;DHT22;10994;45.486;9.190;2024-01-30T09:35:38;6.40;99.90
21666;DHT22;10994;45.486;9.190;2024-01-30T09:38:04;6.30;99.90
21666;DHT22;10994;45.486;9.190;2024-01-30T09:40:30;6.30;99.90
21666;DHT22;10994;45.486;9.190;2024-01-30T09:42:55;6.30;99.90
21666;DHT22;10994;45.486;9.190;2024-01-30T09:45:25;6.30;99.90
21666;DHT22;10994;45.486;9.190;2024-01-30T09:47:52;6.40;99.90
21666;DHT22;10994;45.486;9.190;2024-01-30T09:50:18;6.50;99.90
21666;DHT22;10994;45.486;9.190;2024-01-30T09:52:44;6.50;99.90
21666;DHT22;10994;45.486;9.190;2024-01-30T09:55:11;6.50;99.90
21666;DHT22;10994;45.486;9.190;2024-01-30T09:57:37;6.50;99.90
21666;DHT22;10994;45.486;9.190;2024-01-30T10:00:03;6.60;99.90
21666;DHT22;10994;45.486;9.190;2024-01-30T10:02:38;6.70;99.90
21666;DHT22;10994;45.486;9.190;2024-01-30T10:05:04;6.80;99.90
21666;DHT22;10994;45.486;9.190;2024-01-30T10:07:30;6.70;99.90
21666;DHT22;10994;45.486;9.190;2024-01-30T10:09:56;6.70;99.90
21666;DHT22;10994;45.486;9.190;2024-01-30T10:12:22;6.80;99.90
21666;DHT22;10994;45.486;9.190;2024-01-30T10:14:48;6.80;99.90
21666;DHT22;10994;45.486;9.190;2024-01-30T10:17:14;7.00;99.90
21666;DHT22;10994;45.486;9.190;2024-01-30T10:19:40;6.90;99.90
21666;DHT22;10994;45.486;9.190;2024-01-30T10:22:06;6.90;99.90
21666;DHT22;10994;45.486;9.190;2024-01-30T10:24:35;7.00;99.90
21666;DHT22;10994;45.486;9.190;2024-01-30T10:27:01;7.00;99.90
21666;DHT22;10994;45.486;9.190;2024-01-30T10:29:28;7.00;99.90
21666;DHT22;10994;45.486;9.190;2024-01-30T10:32:04;7.00;99.90
21666;DHT22;10994;45.486;9.190;2024-01-30T10:34:32;7.20;99.90
21666;DHT22;10994;45.486;9.190;2024-01-30T10:37:10;7.20;99.90
21666;DHT22;10994;45.486;9.190;2024-01-30T10:39:44;7.40;99.90
21666;DHT22;10994;45.486;9.190;2024-01-30T10:42:18;7.50;99.90
21666;DHT22;10994;45.486;9.190;2024-01-30T10:47:26;7.50;99.90
21666;DHT22;10994;45.486;9.190;2024-01-30T10:49:52;7.60;99.90
21666;DHT22;10994;45.486;9.190;2024-01-30T10:52:20;7.70;99.90
21666;DHT22;10994;45.486;9.190;2024-01-30T10:54:46;7.70;99.90
21666;DHT22;10994;45.486;9.190;2024-01-30T10:57:13;7.80;99.90
21666;DHT22;10994;45.486;9.190;2024-01-30T10:59:41;7.80;99.90
21666;DHT22;10994;45.486;9.190;2024-01-30T11:02:09;7.90;99.90
21666;DHT22;10994;45.486;9.190;2024-01-30T11:04:40;8.00;99.90
21666;DHT22;10994;45.486;9.190;2024-01-30T11:07:16;8.10;99.90
21666;DHT22;10994;45.486;9.190;2024-01-30T11:10:06;8.20;99.90
21666;DHT22;10994;45.486;9.190;2024-01-30T11:12:38;8.10;99.90
21666;DHT22;10994;45.486;9.190;2024-01-30T11:15:11;8.20;99.90
21666;DHT22;10994;45.486;9.190;2024-01-30T11:20:22;8.40;99.90
21666;DHT22;10994;45.486;9.190;2024-01-30T11:22:56;8.40;99.90
21666;DHT22;10994;45.486;9.190;2024-01-30T11:25:22;8.40;99.90
21666;DHT22;10994;45.486;9.190;2024-01-30T11:27:55;8.40;99.90
21666;DHT22;10994;45.486;9.190;2024-01-30T11:30:29;8.40;99.90
21666;DHT22;10994;45.486;9.190;2024-01-30T11:33:05;8.50;99.90
21666;DHT22;10994;45.486;9.190;2024-01-30T11:35:33;8.60;99.90
21666;DHT22;10994;45.486;9.190;2024-01-30T11:38:00;8.70;99.90
21666;DHT22;10994;45.486;9.190;2024-01-30T11:40:31;8.80;99.90
21666;DHT22;10994;45.486;9.190;2024-01-30T11:43:01;8.80;99.90
21666;DHT22;10994;45.486;9.190;2024-01-30T11:45:28;8.90;99.90
21666;DHT22;10994;45.486;9.190;2024-01-30T11:47:54;9.00;99.90
21666;DHT22;10994;45.486;9.190;2024-01-30T11:50:20;9.10;99.90
21666;DHT22;10994;45.486;9.190;2024-01-30T11:52:46;9.10;99.90
21666;DHT22;10994;45.486;9.190;2024-01-30T11:55:13;9.20;99.90
21666;DHT22;10994;45.486;9.190;2024-01-30T11:57:39;9.20;99.90
21666;DHT22;10994;45.486;9.190;2024-01-30T12:00:05;9.20;99.90
21666;DHT22;10994;45.486;9.190;2024-01-30T12:02:39;9.20;99.90
21666;DHT22;10994;45.486;9.190;2024-01-30T12:05:08;9.20;99.90
21666;DHT22;10994;45.486;9.190;2024-01-30T12:07:37;9.20;99.90
21666;DHT22;10994;45.486;9.190;2024-01-30T12:10:03;9.20;99.90
21666;DHT22;10994;45.486;9.190;2024-01-30T12:12:30;9.30;99.90
21666;DHT22;10994;45.486;9.190;2024-01-30T12:14:56;9.40;99.90
21666;DHT22;10994;45.486;9.190;2024-01-30T12:24:58;9.70;99.90
21666;DHT22;10994;45.486;9.190;2024-01-30T12:27:23;9.90;99.90
21666;DHT22;10994;45.486;9.190;2024-01-30T12:29:58;9.80;99.90
21666;DHT22;10994;45.486;9.190;2024-01-30T12:32:24;9.90;99.90
21666;DHT22;10994;45.486;9.190;2024-01-30T12:34:49;9.90;99.90
21666;DHT22;10994;45.486;9.190;2024-01-30T12:39:47;10.80;99.90
21666;DHT22;10994;45.486;9.190;2024-01-30T12:42:13;16.80;99.90
21666;DHT22;10994;45.486;9.190;2024-01-30T12:44:39;19.20;99.90
21666;DHT22;10994;45.486;9.190;2024-01-30T12:47:05;21.80;99.90
21666;DHT22;10994;45.486;9.190;2024-01-30T12:49:31;23.90;99.90
21666;DHT22;10994;45.486;9.190;2024-01-30T12:51:58;23.50;99.90
21666;DHT22;10994;45.486;9.190;2024-01-30T12:56:50;20.50;99.90
21666;DHT22;10994;45.486;9.190;2024-01-30T13:01:42;16.20;99.90
21666;DHT22;10994;45.486;9.190;2024-01-30T13:58:09;14.20;99.90
21666;DHT22;10994;45.486;9.190;2024-01-30T14:00:34;11.30;99.90
21666;DHT22;10994;45.486;9.190;2024-01-30T14:03:00;11.40;99.90
21666;DHT22;10994;45.486;9.190;2024-01-30T14:05:27;11.40;99.90
21666;DHT22;10994;45.486;9.190;2024-01-30T14:07:56;11.20;99.90
21666;DHT22;10994;45.486;9.190;2024-01-30T14:10:23;11.00;99.90
21666;DHT22;10994;45.486;9.190;2024-01-30T14:12:48;10.60;99.90
21666;DHT22;10994;45.486;9.190;2024-01-30T14:15:14;10.60;99.90
21666;DHT22;10994;45.486;9.190;2024-01-30T14:17:41;10.70;99.90
21666;DHT22;10994;45.486;9.190;2024-01-30T14:20:07;11.00;99.90
21666;DHT22;10994;45.486;9.190;2024-01-30T14:22:34;11.50;99.90
21666;DHT22;10994;45.486;9.190;2024-01-30T14:25:01;11.50;99.90
21666;DHT22;10994;45.486;9.190;2024-01-30T14:27:31;11.40;99.90
21666;DHT22;10994;45.486;9.190;2024-01-30T14:29:57;11.30;99.90
21666;DHT22;10994;45.486;9.190;2024-01-30T14:32:24;11.20;99.90
21666;DHT22;10994;45.486;9.190;2024-01-30T14:34:50;11.20;99.90
21666;DHT22;10994;45.486;9.190;2024-01-30T14:37:16;11.20;99.90
21666;DHT22;10994;45.486;9.190;2024-01-30T14:39:42;11.10;99.90
21666;DHT22;10994;45.486;9.190;2024-01-30T14:42:08;11.20;99.90
21666;DHT22;10994;45.486;9.190;2024-01-30T14:44:33;11.20;99.90
21666;DHT22;10994;45.486;9.190;2024-01-30T14:47:00;11.20;99.90
21666;DHT22;10994;45.486;9.190;2024-01-30T14:49:26;11.20;99.90
21666;DHT22;10994;45.486;9.190;2024-01-30T14:51:51;11.20;99.90
21666;DHT22;10994;45.486;9.190;2024-01-30T14:54:17;11.10;99.90
21666;DHT22;10994;45.486;9.190;2024-01-30T14:56:44;11.10;99.90
21666;DHT22;10994;45.486;9.190;2024-01-30T14:59:10;11.10;99.90
21666;DHT22;10994;45.486;9.190;2024-01-30T15:01:35;11.10;99.90
21666;DHT22;10994;45.486;9.190;2024-01-30T15:04:01;11.10;99.90
21666;DHT22;10994;45.486;9.190;2024-01-30T15:06:28;11.10;99.90
21666;DHT22;10994;45.486;9.190;2024-01-30T15:08:54;11.10;99.90
21666;DHT22;10994;45.486;9.190;2024-01-30T15:11:20;11.10;99.90
21666;DHT22;10994;45.486;9.190;2024-01-30T15:13:46;11.10;99.90
21666;DHT22;10994;45.486;9.190;2024-01-30T15:16:12;11.10;99.90
21666;DHT22;10994;45.486;9.190;2024-01-30T15:21:04;11.10;99.90
21666;DHT22;10994;45.486;9.190;2024-01-30T15:23:29;11.10;99.90
21666;DHT22;10994;45.486;9.190;2024-01-30T15:25:55;11.00;99.90
21666;DHT22;10994;45.486;9.190;2024-01-30T15:28:39;10.90;99.90
21666;DHT22;10994;45.486;9.190;2024-01-30T15:31:06;10.90;99.90
21666;DHT22;10994;45.486;9.190;2024-01-30T15:33:32;10.80;99.90
21666;DHT22;10994;45.486;9.190;2024-01-30T15:36:01;10.80;99.90
21666;DHT22;10994;45.486;9.190;2024-01-30T15:38:27;10.70;99.90
21666;DHT22;10994;45.486;9.190;2024-01-30T15:40:54;10.80;99.90
21666;DHT22;10994;45.486;9.190;2024-01-30T15:43:20;10.80;99.90
21666;DHT22;10994;45.486;9.190;2024-01-30T23:34:43;10.80;99.90
21666;DHT22;10994;45.486;9.190;2024-01-30T23:37:09;8.50;99.90
21666;DHT22;10994;45.486;9.190;2024-01-30T23:39:35;8.40;99.90
21666;DHT22;10994;45.486;9.190;2024-01-30T23:42:00;8.30;99.90
21666;DHT22;10994;45.486;9.190;2024-01-30T23:44:26;8.30;99.90
21666;DHT22;10994;45.486;9.190;2024-01-30T23:46:52;8.40;99.90
21666;DHT22;10994;45.486;9.190;2024-01-30T23:49:18;8.50;99.90
21666;DHT22;10994;45.486;9.190;2024-01-30T23:51:43;8.50;99.90
21666;DHT22;10994;45.486;9.190;2024-01-30T23:54:09;8.50;99.90
21666;DHT22;10994;45.486;9.190;2024-01-30T23:56:41;8.50;99.90
21666;DHT22;10994;45.486;9.190;2024-01-30T23:59:09;8.50;99.90
